createdAt,value
2022-08-09T00:00:23.389Z,0.30
2022-08-09T00:02:51.849Z,0.40
2022-08-09T00:06:15.805Z,0.40
2022-08-09T00:08:12.864Z,0.30
2022-08-09T00:10:40.615Z,0.40
2022-08-09T00:13:17.174Z,0.45
2022-08-09T00:15:57.942Z,0.40
2022-08-09T00:18:34.935Z,0.37
2022-08-09T00:21:08.483Z,0.30
2022-08-09T00:23:57.861Z,0.80
2022-08-09T00:26:29.750Z,0.30
2022-08-09T00:29:00.537Z,0.47
2022-08-09T00:31:57.651Z,0.55
2022-08-09T00:34:14.533Z,0.60
2022-08-09T00:36:47.867Z,0.30
2022-08-09T00:40:08.877Z,0.82
2022-08-09T00:44:16.377Z,0.40
2022-08-09T00:44:48.667Z,0.37
2022-08-09T00:47:16.126Z,0.30
2022-08-09T00:49:52.558Z,0.47
2022-08-09T00:52:30.298Z,0.30
2022-08-09T00:55:01.655Z,0.40
2022-08-09T00:57:34.273Z,0.30
2022-08-09T01:00:21.279Z,0.45
2022-08-09T01:02:54.933Z,0.30
2022-08-09T01:05:53.292Z,0.40
2022-08-09T01:08:31.445Z,0.35
2022-08-09T01:11:26.427Z,0.40
2022-08-09T01:14:08.018Z,0.30
2022-08-09T01:16:47.179Z,0.43
2022-08-09T01:19:51.852Z,0.40
2022-08-09T01:22:42.678Z,0.50
2022-08-09T01:25:25.124Z,0.30
2022-08-09T01:27:53.969Z,0.30
2022-08-09T01:30:33.672Z,0.52
2022-08-09T01:33:04.482Z,0.40
2022-08-09T01:35:45.876Z,0.37
2022-08-09T01:38:20.927Z,0.43
2022-08-09T01:41:04.754Z,0.20
2022-08-09T01:43:50.082Z,0.50
2022-08-09T01:46:31.647Z,0.30
2022-08-09T01:49:18.717Z,0.50
2022-08-09T01:51:54.757Z,0.30
2022-08-09T01:54:24.156Z,0.40
2022-08-09T01:56:52.620Z,0.50
2022-08-09T01:59:20.786Z,0.30
2022-08-09T02:01:59.988Z,0.30
2022-08-09T02:04:28.546Z,0.47
2022-08-09T02:07:15.300Z,0.30
2022-08-09T02:09:59.750Z,0.30
2022-08-09T02:12:29.467Z,0.40
2022-08-09T02:14:58.573Z,0.30
2022-08-09T02:18:00.799Z,0.62
2022-08-09T02:20:25.016Z,0.30
2022-08-09T02:22:59.237Z,0.65
2022-08-09T02:25:33.203Z,0.37
2022-08-09T02:28:17.894Z,0.50
2022-08-09T02:30:49.055Z,0.30
2022-08-09T02:33:23.671Z,0.50
2022-08-09T02:36:15.815Z,0.53
2022-08-09T02:38:51.982Z,0.30
2022-08-09T02:41:27.126Z,0.30
2022-08-09T02:43:56.668Z,0.30
2022-08-09T02:46:27.838Z,0.40
2022-08-09T02:48:59.644Z,0.30
2022-08-09T02:51:28.165Z,0.40
2022-08-09T02:54:05.239Z,0.50
2022-08-09T02:56:33.445Z,0.32
2022-08-09T02:59:03.736Z,0.30
2022-08-09T03:01:43.157Z,0.43
2022-08-09T03:04:20.666Z,0.93
2022-08-09T03:06:53.482Z,0.50
2022-08-09T03:09:21.391Z,0.85
2022-08-09T03:12:05.450Z,0.30
2022-08-09T03:14:36.483Z,0.40
2022-08-09T03:17:05.626Z,0.40
2022-08-09T03:19:57.811Z,0.40
2022-08-09T03:22:41.480Z,0.30
2022-08-09T03:25:26.475Z,1.10
2022-08-09T03:27:57.720Z,0.40
2022-08-09T03:30:29.228Z,0.50
2022-08-09T03:33:01.456Z,0.30
2022-08-09T03:36:07.916Z,0.40
2022-08-09T03:38:28.836Z,0.40
2022-08-09T03:40:56.279Z,0.40
2022-08-09T03:43:23.219Z,0.30
2022-08-09T03:46:04.315Z,0.50
2022-08-09T03:48:51.299Z,0.40
2022-08-09T03:51:55.660Z,0.30
2022-08-09T03:54:12.662Z,0.30
2022-08-09T03:56:40.948Z,0.30
2022-08-09T03:59:17.093Z,0.40
2022-08-09T04:01:50.100Z,0.30
2022-08-09T04:04:17.658Z,0.50
2022-08-09T04:06:49.200Z,0.40
2022-08-09T04:09:47.911Z,0.40
2022-08-09T04:12:12.056Z,0.82
2022-08-09T04:15:00.790Z,0.40
2022-08-09T04:17:27.201Z,0.30
2022-08-09T04:19:57.231Z,0.60
2022-08-09T04:22:24.648Z,0.35
2022-08-09T04:24:54.941Z,0.30
2022-08-09T04:27:22.172Z,0.40
2022-08-09T04:29:50.470Z,0.30
2022-08-09T04:32:31.218Z,0.30
2022-08-09T04:34:58.585Z,0.30
2022-08-09T04:37:46.055Z,0.50
2022-08-09T04:40:28.533Z,0.50
2022-08-09T04:43:04.704Z,0.30
2022-08-09T04:45:36.149Z,0.40
2022-08-09T04:48:19.421Z,0.30
2022-08-09T04:50:49.880Z,0.45
2022-08-09T04:53:17.145Z,0.60
2022-08-09T04:55:57.517Z,0.40
2022-08-09T04:58:26.722Z,0.50
2022-08-09T05:00:54.510Z,0.40
2022-08-09T05:03:40.411Z,0.65
2022-08-09T05:06:11.329Z,0.45
2022-08-09T05:08:38.367Z,0.45
2022-08-09T05:11:06.786Z,1.15
2022-08-09T05:13:38.643Z,0.40
2022-08-09T05:16:07.905Z,0.50
2022-08-09T05:18:50.601Z,0.52
2022-08-09T05:21:24.228Z,0.50
2022-08-09T05:23:58.116Z,0.50
2022-08-09T05:26:45.255Z,0.40
2022-08-09T05:29:21.913Z,0.50
2022-08-09T05:31:57.691Z,0.50
2022-08-09T05:34:31.206Z,0.80
2022-08-09T05:37:05.223Z,0.50
2022-08-09T05:39:42.856Z,0.90
2022-08-09T05:42:17.662Z,0.40
2022-08-09T05:44:53.425Z,0.47
2022-08-09T05:47:22.821Z,0.60
2022-08-09T05:50:30.022Z,0.80
2022-08-09T05:52:39.534Z,0.60
2022-08-09T05:55:08.945Z,0.60
2022-08-09T05:57:50.663Z,0.40
2022-08-09T06:00:25.977Z,0.60
2022-08-09T06:02:54.635Z,0.70
2022-08-09T06:05:31.083Z,0.70
2022-08-09T06:08:19.355Z,0.60
2022-08-09T06:10:55.535Z,0.62
2022-08-09T06:13:23.529Z,0.60
2022-08-09T06:15:52.269Z,0.77
2022-08-09T06:18:23.810Z,0.70
2022-08-09T06:20:54.871Z,1.17
2022-08-09T06:23:55.643Z,1.27
2022-08-09T06:26:12.704Z,0.68
2022-08-09T06:28:43.522Z,0.60
2022-08-09T06:31:10.853Z,0.70
2022-08-09T06:33:40.626Z,0.60
2022-08-09T06:36:09.441Z,0.80
2022-08-09T06:38:39.110Z,0.70
2022-08-09T06:41:18.393Z,0.60
2022-08-09T06:43:47.769Z,0.80
2022-08-09T06:46:39.089Z,0.75
2022-08-09T06:49:04.564Z,0.65
2022-08-09T06:51:33.676Z,0.90
2022-08-09T06:54:09.155Z,0.75
2022-08-09T06:56:39.482Z,1.20
2022-08-09T07:00:52.508Z,0.80
2022-08-09T07:02:03.925Z,0.93
2022-08-09T07:04:32.183Z,0.97
2022-08-09T07:07:00.612Z,0.80
2022-08-09T07:09:55.597Z,1.33
2022-08-09T07:12:20.126Z,1.10
2022-08-09T07:16:35.355Z,1.17
2022-08-09T07:17:56.455Z,0.80
2022-08-09T07:20:29.538Z,0.80
2022-08-09T07:22:56.816Z,0.50
2022-08-09T07:25:25.584Z,0.90
2022-08-09T07:27:53.214Z,1.00
2022-08-09T07:30:24.759Z,0.90
2022-08-09T07:32:52.729Z,0.80
2022-08-09T07:35:19.668Z,0.80
2022-08-09T07:37:49.132Z,0.82
2022-08-09T07:40:18.546Z,0.90
2022-08-09T07:42:56.039Z,0.98
2022-08-09T07:45:37.513Z,1.17
2022-08-09T07:48:28.342Z,0.70
2022-08-09T07:51:02.970Z,0.70
2022-08-09T07:54:05.023Z,0.70
2022-08-09T07:56:27.479Z,1.33
2022-08-09T07:58:55.471Z,1.05
2022-08-09T08:01:32.925Z,0.90
2022-08-09T08:04:02.766Z,0.80
2022-08-09T08:06:31.952Z,0.90
2022-08-09T08:09:04.986Z,0.70
2022-08-09T08:12:19.775Z,0.87
2022-08-09T08:14:21.059Z,0.93
2022-08-09T08:17:00.341Z,1.37
2022-08-09T08:19:40.586Z,1.37
2022-08-09T08:22:13.359Z,1.20
2022-08-09T08:24:44.798Z,1.07
2022-08-09T08:27:16.884Z,1.00
2022-08-09T08:29:50.214Z,1.00
2022-08-09T08:32:41.292Z,0.80
2022-08-09T08:35:07.686Z,1.25
2022-08-09T08:37:42.007Z,0.87
2022-08-09T08:40:23.152Z,0.90
2022-08-09T08:42:53.687Z,0.80
2022-08-09T08:45:50.788Z,1.00
2022-08-09T08:48:19.502Z,1.00
2022-08-09T08:50:49.211Z,1.05
2022-08-09T08:53:21.779Z,1.02
2022-08-09T08:55:49.114Z,1.50
2022-08-09T08:58:20.065Z,1.15
2022-08-09T09:00:56.888Z,1.27
2022-08-09T09:03:33.145Z,1.40
2022-08-09T09:06:05.811Z,1.30
2022-08-09T09:08:37.894Z,0.90
2022-08-09T09:11:08.373Z,1.40
2022-08-09T09:13:47.301Z,1.23
2022-08-09T09:16:34.915Z,1.10
2022-08-09T09:19:37.256Z,1.33
2022-08-09T09:22:04.282Z,1.37
2022-08-09T09:24:43.217Z,1.20
2022-08-09T09:28:03.084Z,1.50
2022-08-09T09:30:23.733Z,1.40
2022-08-09T09:33:13.808Z,1.60
2022-08-09T09:36:21.066Z,1.42
2022-08-09T09:38:57.162Z,1.40
2022-08-09T09:41:27.835Z,1.30
2022-08-09T09:44:11.436Z,1.35
2022-08-09T09:46:50.388Z,1.30
2022-08-09T09:49:31.585Z,1.23
2022-08-09T09:52:16.297Z,1.20
2022-08-09T09:55:28.743Z,1.43
2022-08-09T09:58:16.939Z,1.30
2022-08-09T10:00:53.768Z,1.83
2022-08-09T10:03:58.247Z,1.60
2022-08-09T10:06:43.474Z,1.50
2022-08-09T10:09:22.949Z,1.27
2022-08-09T10:12:14.774Z,1.50
2022-08-09T10:14:49.930Z,1.33
2022-08-09T10:17:39.764Z,1.40
2022-08-09T10:20:27.730Z,1.70
2022-08-09T10:23:13.934Z,1.03
2022-08-09T10:26:04.371Z,1.70
2022-08-09T10:28:34.236Z,1.25
2022-08-09T10:34:11.106Z,1.30
2022-08-09T10:36:36.379Z,1.58
2022-08-09T10:39:06.036Z,1.02
2022-08-09T10:41:43.107Z,1.30
2022-08-09T10:44:10.254Z,1.35
2022-08-09T10:46:57.160Z,1.50
2022-08-09T10:49:50.034Z,1.10
2022-08-09T10:52:51.771Z,1.10
2022-08-09T10:55:27.642Z,2.35
2022-08-09T10:58:00.217Z,1.65
2022-08-09T11:00:56.894Z,1.65
2022-08-09T11:03:46.999Z,1.35
2022-08-09T11:06:19.454Z,1.30
2022-08-09T11:08:51.819Z,1.15
2022-08-09T11:11:23.232Z,1.40
2022-08-09T11:14:35.439Z,1.40
2022-08-09T11:17:24.601Z,1.10
2022-08-09T11:20:11.134Z,1.40
2022-08-09T11:22:47.295Z,1.12
2022-08-09T11:25:47.554Z,1.40
2022-08-09T11:28:54.273Z,1.40
2022-08-09T11:31:49.651Z,1.23
2022-08-09T11:34:38.996Z,1.57
2022-08-09T11:37:07.820Z,1.75
2022-08-09T11:40:18.094Z,1.85
2022-08-09T11:42:49.882Z,1.48
2022-08-09T11:45:21.554Z,1.10
2022-08-09T11:47:54.006Z,1.90
2022-08-09T11:50:54.922Z,1.23
2022-08-09T11:53:43.986Z,1.40
2022-08-09T11:56:02.345Z,1.15
2022-08-09T11:58:33.621Z,1.27
2022-08-09T12:01:37.224Z,1.47
2022-08-09T12:04:04.829Z,1.90
2022-08-09T12:06:35.326Z,1.20
2022-08-09T12:09:15.045Z,1.75
2022-08-09T12:12:03.445Z,1.58
2022-08-09T12:14:40.651Z,1.30
2022-08-09T12:17:33.876Z,1.30
2022-08-09T12:20:16.482Z,1.27
2022-08-09T12:22:55.737Z,1.50
2022-08-09T12:25:36.540Z,1.20
2022-08-09T12:29:14.548Z,1.63
2022-08-09T12:30:59.870Z,1.30
2022-08-09T12:33:51.114Z,1.70
2022-08-09T12:36:27.328Z,1.48
2022-08-09T12:38:58.701Z,1.90
2022-08-09T12:41:36.314Z,2.03
2022-08-09T12:44:12.692Z,1.30
2022-08-09T12:46:49.067Z,1.92
2022-08-09T12:49:17.530Z,1.25
2022-08-09T12:52:01.942Z,0.97
2022-08-09T12:56:10.631Z,1.62
2022-08-09T12:57:38.683Z,1.27
2022-08-09T13:00:19.109Z,1.40
2022-08-09T13:02:58.583Z,1.10
2022-08-09T13:05:35.574Z,1.50
2022-08-09T13:08:21.100Z,1.20
2022-08-09T13:11:13.381Z,1.30
2022-08-09T13:14:41.192Z,1.40
2022-08-09T13:16:48.295Z,1.52
2022-08-09T13:20:09.336Z,1.65
2022-08-09T13:22:35.478Z,1.00
2022-08-09T13:25:13.903Z,1.30
2022-08-09T13:27:48.167Z,1.43
2022-08-09T13:30:50.543Z,1.12
2022-08-09T13:33:11.932Z,1.52
2022-08-09T13:36:41.768Z,1.70
2022-08-09T13:38:54.937Z,1.50
2022-08-09T13:41:58.322Z,1.20
2022-08-09T13:44:09.209Z,1.10
2022-08-09T13:47:13.058Z,1.65
2022-08-09T13:49:33.987Z,1.17
2022-08-09T13:52:09.270Z,1.40
2022-08-09T13:54:42.838Z,1.20
2022-08-09T13:57:36.482Z,1.30
2022-08-09T14:00:05.699Z,1.65
2022-08-09T14:02:33.036Z,1.30
2022-08-09T14:05:03.507Z,1.33
2022-08-09T14:07:41.133Z,1.75
2022-08-09T14:10:17.605Z,1.48
2022-08-09T14:12:58.675Z,1.35
2022-08-09T14:16:07.287Z,1.20
2022-08-09T14:18:27.482Z,1.10
2022-08-09T14:20:57.184Z,1.40
2022-08-09T14:23:40.132Z,1.35
2022-08-09T14:26:11.273Z,1.25
2022-08-09T14:28:38.583Z,1.13
2022-08-09T14:31:07.394Z,1.00
2022-08-09T14:33:38.133Z,1.30
2022-08-09T14:36:20.766Z,1.50
2022-08-09T14:38:52.823Z,1.42
2022-08-09T14:41:34.797Z,1.52
2022-08-09T14:44:07.166Z,1.10
2022-08-09T14:46:58.131Z,1.17
2022-08-09T14:49:25.530Z,1.27
2022-08-09T14:51:58.197Z,1.33
2022-08-09T14:54:28.117Z,1.40
2022-08-09T14:56:58.666Z,0.90
2022-08-09T14:59:28.645Z,1.13
2022-08-09T15:01:56.070Z,1.20
2022-08-09T15:04:23.481Z,0.95
2022-08-09T15:06:51.677Z,1.20
2022-08-09T15:10:03.626Z,1.40
2022-08-09T15:12:09.809Z,1.17
2022-08-09T15:14:39.101Z,1.02
2022-08-09T15:17:09.873Z,1.00
2022-08-09T15:19:54.450Z,0.93
2022-08-09T15:22:26.874Z,1.10
2022-08-09T15:24:54.455Z,0.98
2022-08-09T15:27:21.931Z,1.00
2022-08-09T15:30:57.173Z,1.48
2022-08-09T15:32:37.568Z,0.90
2022-08-09T15:35:17.829Z,1.08
2022-08-09T15:37:57.062Z,0.70
2022-08-09T15:40:38.361Z,0.80
2022-08-09T15:43:13.486Z,0.90
2022-08-09T15:46:07.287Z,1.23
2022-08-09T15:48:31.759Z,0.90
2022-08-09T15:51:11.423Z,1.00
2022-08-09T15:54:03.885Z,1.00
2022-08-09T15:56:37.100Z,1.55
2022-08-09T15:59:04.363Z,1.10
2022-08-09T16:01:35.371Z,1.10
2022-08-09T16:04:03.046Z,1.10
2022-08-09T16:06:35.559Z,1.17
2022-08-09T16:09:05.667Z,1.10
2022-08-09T16:11:33.046Z,1.00
2022-08-09T16:14:06.901Z,1.05
2022-08-09T16:16:39.041Z,1.00
2022-08-09T16:19:10.151Z,0.90
2022-08-09T16:21:42.262Z,1.00
2022-08-09T16:24:33.864Z,1.02
2022-08-09T16:27:01.997Z,1.30
2022-08-09T16:29:37.101Z,1.30
2022-08-09T16:32:33.245Z,1.15
2022-08-09T16:35:02.341Z,1.23
2022-08-09T16:37:55.257Z,1.20
2022-08-09T16:40:20.362Z,1.00
2022-08-09T16:42:48.319Z,1.35
2022-08-09T16:45:21.354Z,1.58
2022-08-09T16:48:42.404Z,1.23
2022-08-09T16:50:38.659Z,0.82
2022-08-09T16:53:11.891Z,0.80
2022-08-09T16:55:57.807Z,1.12
2022-08-09T16:58:26.026Z,1.55
2022-08-09T17:00:53.575Z,1.15
2022-08-09T17:03:22.965Z,1.62
2022-08-09T17:06:06.771Z,1.83
2022-08-09T17:09:02.722Z,0.95
2022-08-09T17:11:33.084Z,1.37
2022-08-09T17:14:07.548Z,1.62
2022-08-09T17:16:38.346Z,1.73
2022-08-09T17:19:05.541Z,3.03
2022-08-09T17:21:32.421Z,2.47
2022-08-09T17:24:27.136Z,2.97
2022-08-09T17:26:47.810Z,1.77
2022-08-09T17:29:21.131Z,2.55
2022-08-09T17:31:49.153Z,1.20
2022-08-09T17:35:02.025Z,1.73
2022-08-09T17:37:03.878Z,0.90
2022-08-09T17:39:48.263Z,1.17
2022-08-09T17:42:42.174Z,1.10
2022-08-09T17:45:06.570Z,1.10
2022-08-09T17:47:49.796Z,1.08
2022-08-09T17:50:24.876Z,0.88
2022-08-09T17:53:04.761Z,0.93
2022-08-09T17:55:49.379Z,1.23
2022-08-09T17:58:19.168Z,0.90
2022-08-09T18:00:48.008Z,1.10
2022-08-09T18:03:15.383Z,0.80
2022-08-09T18:05:45.137Z,0.70
2022-08-09T18:08:22.019Z,0.87
2022-08-09T18:11:01.013Z,0.90
2022-08-09T18:13:42.962Z,0.90
2022-08-09T18:16:17.503Z,0.90
2022-08-09T18:18:57.322Z,0.93
2022-08-09T18:21:26.337Z,0.70
2022-08-09T18:24:10.773Z,0.80
2022-08-09T18:26:46.481Z,0.80
2022-08-09T18:30:39.958Z,0.70
2022-08-09T18:32:02.899Z,0.90
2022-08-09T18:34:31.748Z,0.90
2022-08-09T18:37:00.704Z,1.20
2022-08-09T18:39:32.650Z,0.70
2022-08-09T18:42:08.891Z,0.90
2022-08-09T18:44:36.056Z,0.88
2022-08-09T18:47:08.329Z,0.87
2022-08-09T18:49:46.705Z,0.77
2022-08-09T18:52:16.098Z,0.77
2022-08-09T18:54:52.635Z,1.27
2022-08-09T18:57:22.445Z,0.85
2022-08-09T18:59:56.339Z,0.60
2022-08-09T19:02:32.314Z,0.77
2022-08-09T19:05:15.201Z,0.70
2022-08-09T19:08:04.613Z,0.70
2022-08-09T19:10:37.741Z,0.83
2022-08-09T19:13:19.290Z,0.65
2022-08-09T19:15:49.969Z,0.60
2022-08-09T19:18:33.003Z,0.70
2022-08-09T19:21:01.428Z,0.50
2022-08-09T19:24:39.489Z,0.60
2022-08-09T19:26:17.136Z,0.93
2022-08-09T19:28:48.784Z,0.77
2022-08-09T19:31:16.832Z,0.60
2022-08-09T19:33:43.797Z,0.70
2022-08-09T19:36:11.796Z,0.57
2022-08-09T19:38:40.550Z,0.60
2022-08-09T19:41:10.269Z,0.60
2022-08-09T19:44:00.384Z,0.70
2022-08-09T19:46:34.237Z,0.60
2022-08-09T19:50:09.151Z,0.52
2022-08-09T19:51:55.515Z,0.80
2022-08-09T19:54:26.950Z,0.52
2022-08-09T19:56:58.684Z,0.60
2022-08-09T19:59:39.737Z,0.40
2022-08-09T20:04:07.480Z,0.50
2022-08-09T20:05:10.364Z,0.40
2022-08-09T20:07:59.001Z,0.50
2022-08-09T20:10:34.561Z,0.70
2022-08-09T20:13:05.135Z,0.60
2022-08-09T20:16:34.642Z,0.40
2022-08-09T20:18:21.326Z,0.60
2022-08-09T20:20:51.061Z,0.40
2022-08-09T20:23:21.154Z,0.50
2022-08-09T20:25:52.144Z,0.40
2022-08-09T20:28:27.788Z,0.60
2022-08-09T20:31:04.682Z,0.50
2022-08-09T20:33:41.059Z,0.45
2022-08-09T20:36:11.218Z,0.50
2022-08-09T20:39:06.683Z,0.60
2022-08-09T20:41:34.868Z,0.50
2022-08-09T20:44:09.786Z,0.40
2022-08-09T20:46:43.226Z,0.50
2022-08-09T20:49:13.062Z,0.40
2022-08-09T20:51:42.108Z,0.60
2022-08-09T20:54:17.168Z,0.53
2022-08-09T20:56:49.907Z,0.55
2022-08-09T20:59:25.034Z,0.40
2022-08-09T21:02:10.582Z,0.40
2022-08-09T21:05:57.786Z,0.40
2022-08-09T21:07:30.316Z,0.65
2022-08-09T21:10:08.343Z,0.50
2022-08-09T21:12:37.175Z,0.50
2022-08-09T21:15:04.782Z,0.55
2022-08-09T21:18:21.641Z,0.50
2022-08-09T21:20:26.393Z,0.50
2022-08-09T21:22:54.463Z,0.50
2022-08-09T21:25:44.452Z,0.50
2022-08-09T21:28:34.187Z,0.50
2022-08-09T21:31:17.580Z,0.50
2022-08-09T21:33:52.356Z,0.68
2022-08-09T21:36:23.055Z,0.40
2022-08-09T21:38:51.038Z,0.40
2022-08-09T21:42:04.117Z,0.40
2022-08-09T21:44:33.217Z,0.40
2022-08-09T21:47:05.811Z,0.50
2022-08-09T21:49:40.329Z,0.40
2022-08-09T21:52:16.278Z,0.40
2022-08-09T21:54:57.217Z,0.30
2022-08-09T21:57:39.586Z,0.30
2022-08-09T22:00:34.494Z,0.50
2022-08-09T22:03:05.673Z,0.40
2022-08-09T22:05:37.637Z,0.50
2022-08-09T22:08:13.487Z,0.50
2022-08-09T22:11:00.876Z,0.40
2022-08-09T22:13:34.882Z,0.90
2022-08-09T22:16:07.458Z,0.40
2022-08-09T22:18:35.277Z,0.55
2022-08-09T22:21:10.052Z,0.50
2022-08-09T22:23:59.415Z,0.40
2022-08-09T22:26:35.341Z,0.40
2022-08-09T22:29:09.398Z,0.40
2022-08-09T22:31:37.987Z,0.40
2022-08-09T22:34:17.595Z,0.53
2022-08-09T22:36:47.674Z,0.30
2022-08-09T22:39:46.608Z,0.40
2022-08-09T22:42:03.945Z,0.47
2022-08-09T22:44:33.284Z,0.40
2022-08-09T22:48:11.987Z,0.47
2022-08-09T22:49:51.954Z,0.30
2022-08-09T22:52:19.845Z,0.40
2022-08-09T22:54:47.549Z,0.40
2022-08-09T22:57:15.162Z,0.30
2022-08-09T22:59:58.442Z,0.30
2022-08-09T23:02:27.318Z,0.40
2022-08-09T23:04:55.424Z,0.30
2022-08-09T23:08:22.730Z,0.40
2022-08-09T23:10:31.832Z,0.30
2022-08-09T23:12:59.444Z,0.57
2022-08-09T23:15:27.345Z,0.30
2022-08-09T23:17:54.275Z,0.40
2022-08-09T23:20:21.761Z,0.30
2022-08-09T23:22:48.728Z,0.30
2022-08-09T23:25:15.556Z,0.63
2022-08-09T23:28:13.947Z,0.43
2022-08-09T23:30:30.091Z,0.57
2022-08-09T23:32:56.894Z,0.50
2022-08-09T23:35:24.122Z,0.30
2022-08-09T23:37:50.979Z,0.40
2022-08-09T23:40:18.156Z,0.30
2022-08-09T23:42:45.092Z,0.30
2022-08-09T23:45:37.139Z,0.40
2022-08-09T23:47:59.025Z,0.53
2022-08-09T23:50:26.271Z,0.30
2022-08-09T23:52:53.214Z,0.30
2022-08-09T23:55:20.165Z,0.30
2022-08-09T23:58:07.866Z,0.37
